Latest Weather Observations for Port Fairy

IDV60801

Issued at 7:31 am EDT Wednesday 28 January 2015 (issued every 30 minutes, with the page automatically refreshed every 10 minutes)

About weather observations | Map of weather stations | Latest weather observations for VIC | Other Formats
Station Details ID: 090175 Name: PORT FAIRY AWS Lat: -38.39 Lon: 142.23 Height: 10.0 m
Data from the previous 72 hours. | See also: Recent months at Port Fairy
Date/Time
EDT
Temp
°C
App
Temp
°C
Dew
Point
Rel
Hum
%
Delta-T
°C
Wind Press
QNH
hPa
Press
MSL
hPa
Rain
since 9 am
mm
Dir
 
Spd
km/h
Gust
km/h
Spd
kts
Gust
kts
28/07:30am 15.6 10.0 11.4 76 2.3 SE 32 43 17 23 1019.2 1019.2 0.2
28/07:00am 15.4 10.2 11.6 78 2.0 SSE 30 37 16 20 1019.0 1019.0 0.2
28/06:30am 15.5 10.7 11.7 78 2.1 SSE 28 37 15 20 1018.6 1018.6 0.2
28/06:00am 15.2 9.7 10.4 73 2.5 SE 30 37 16 20 1018.5 1018.5 0.2
28/05:30am 15.3 9.7 10.1 71 2.7 SE 30 39 16 21 1018.4 1018.4 0.2
28/05:00am 15.4 9.9 10.4 72 2.6 SE 30 41 16 22 1018.4 1018.4 0.2
28/04:30am 15.5 10.0 10.5 72 2.6 SSE 30 39 16 21 1018.5 1018.5 0.2
28/04:00am 15.5 9.1 9.4 67 3.1 SSE 33 43 18 23 1018.6 1018.6 0.2
28/03:30am 15.4 10.1 9.7 69 3.0 SSE 28 39 15 21 1018.9 1018.9 0.2
28/03:00am 15.5 9.7 9.6 68 3.0 SE 30 37 16 20 1019.0 1019.0 0.2
28/02:30am 15.6 9.3 9.7 68 3.1 SE 33 43 18 23 1019.2 1019.2 0.2
28/02:00am 15.5 9.7 9.6 68 3.0 SE 30 37 16 20 1019.3 1019.3 0.2
28/01:30am 15.5 9.8 9.8 69 3.0 SE 30 43 16 23 1019.4 1019.4 0.2
28/01:00am 15.3 9.1 9.4 68 3.0 SE 32 43 17 23 1019.5 1019.5 0.2
28/12:30am 15.3 8.9 9.4 68 3.0 SE 33 43 18 23 1019.6 1019.6 0.2
28/12:00am 15.4 8.8 8.6 64 3.4 SSE 33 43 18 23 1019.6 1019.6 0.2
 
Date/Time
EDT
Temp
°C
App
Temp
°C
Dew
Point
Rel
Hum
%
Delta-T
°C
Wind Press
QNH
hPa
Press
MSL
hPa
Rain
since 9 am
mm
Dir
 
Spd
km/h
Gust
km/h
Spd
kts
Gust
kts
27/11:30pm 15.4 10.1 10.0 70 2.8 SE 28 39 15 21 1019.7 1019.7 0.2
27/11:00pm 15.2 9.7 9.3 68 3.0 SSE 28 37 15 20 1019.8 1019.8 0.2
27/10:30pm 15.1 9.2 9.2 68 3.0 SSE 30 39 16 21 1019.9 1019.9 0.2
27/10:00pm 14.9 8.6 8.8 67 3.1 SE 32 43 17 23 1020.0 1020.0 0.2
27/09:30pm 15.3 10.0 9.7 69 2.9 SE 28 37 15 20 1019.8 1019.8 0.2
27/09:00pm 15.3 9.4 9.2 67 3.1 SSE 30 39 16 21 1019.7 1019.7 0.2
27/08:30pm 15.1 9.6 9.2 68 3.0 SSE 28 37 15 20 1019.6 1019.6 0.2
27/08:00pm 15.7 10.2 9.1 65 3.4 SSE 28 39 15 21 1019.3 1019.3 0.2
27/07:30pm 15.8 9.9 9.2 65 3.4 SSE 30 39 16 21 1019.2 1019.2 0.2
27/07:00pm 16.2 10.9 9.8 66 3.3 SSE 28 39 15 21 1019.0 1019.0 0.2
27/06:30pm 15.9 10.3 8.6 62 3.7 SSE 28 35 15 19 1018.7 1018.7 0.2
27/06:00pm 16.4 10.3 9.6 64 3.5 SSE 32 39 17 21 1018.6 1018.6 0.2
27/05:30pm 16.6 11.3 10.0 65 3.5 SSE 28 39 15 21 1018.6 1018.6 0.2
27/05:00pm 16.3 10.3 10.2 67 3.2 SSE 32 41 17 22 1018.7 1018.7 0.2
27/04:30pm 17.3 12.1 10.2 63 3.8 SSE 28 37 15 20 1018.9 1018.9 0.2
27/04:00pm 18.6 12.7 9.1 54 5.0 SSE 30 39 16 21 1018.9 1018.9 0.2
27/03:30pm 18.8 13.6 9.0 53 5.1 SSE 26 35 14 19 1018.8 1018.8 0.0
27/03:00pm 19.6 19.1 10.6 56 4.9 SE 4 57 2 31 1018.8 1018.8 0.0
27/02:30pm 19.0 14.7 9.2 53 5.1 SSE 22 32 12 17 1018.9 1018.9 0.0
27/02:00pm 18.4 14.0 8.9 54 4.9 SSE 22 30 12 16 1019.1 1019.1 0.0
27/01:30pm 17.9 13.4 8.7 55 4.8 SSE 22 28 12 15 1019.2 1019.2 0.0
27/01:00pm 17.2 13.2 8.9 58 4.3 SSE 20 26 11 14 1019.2 1019.2 0.0
27/12:30pm 16.6 12.4 9.8 64 3.6 SSE 22 28 12 15 1019.3 1019.3 0.0
27/12:00pm 16.1 11.5 9.5 65 3.4 SSE 24 32 13 17 1019.3 1019.3 0.0
27/11:30am 16.3 11.8 9.9 66 3.4 SSE 24 35 13 19 1019.4 1019.4 0.0
27/11:00am 18.1 14.0 7.8 51 5.2 SSE 19 24 10 13 1019.3 1019.3 0.0
27/10:30am 18.3 14.8 8.8 54 4.9 SSE 17 22 9 12 1019.1 1019.1 0.0
27/10:00am 18.0 14.9 8.8 55 4.8 SSE 15 20 8 11 1019.1 1019.1 0.0
27/09:30am 17.1 13.5 8.5 57 4.4 SSE 17 20 9 11 1019.2 1019.2 0.0
27/09:00am 16.4 12.7 8.1 58 4.2 SSE 17 24 9 13 1019.1 1019.1 0.0
27/08:30am 15.9 12.5 7.7 58 4.1 SSE 15 22 8 12 1018.8 1018.8 0.0
27/08:00am 15.5 12.3 8.3 62 3.6 SSE 15 20 8 11 1018.2 1018.2 0.0
27/07:30am 14.7 11.7 7.7 63 3.5 SSE 13 17 7 9 1018.0 1018.0 0.0
27/07:00am 14.7 11.1 8.2 65 3.3 SSE 17 22 9 12 1017.8 1017.8 0.0
27/06:30am 14.7 11.4 8.2 65 3.3 SSE 15 20 8 11 1017.5 1017.5 0.0
27/06:00am 14.4 11.9 8.1 66 3.1 SSE 11 17 6 9 1017.5 1017.5 0.0
27/05:30am 14.2 10.9 7.9 66 3.1 SE 15 20 8 11 1017.4 1017.4 0.0
27/05:00am 13.9 10.6 8.1 68 2.9 SSE 15 19 8 10 1017.4 1017.4 0.0
27/04:30am 14.2 11.4 8.6 69 2.8 SE 13 19 7 10 1017.5 1017.5 0.0
27/04:00am 14.0 11.6 8.6 70 2.7 SSE 11 19 6 10 1017.7 1017.7 0.0
27/03:30am 13.9 10.6 8.1 68 2.9 SSE 15 19 8 10 1017.9 1017.9 0.0
27/03:00am 14.4 11.6 8.6 68 2.9 SSE 13 19 7 10 1017.9 1017.9 0.0
27/02:30am 14.4 11.2 8.6 68 2.9 SSE 15 19 8 10 1017.9 1017.9 0.0
27/02:00am 14.5 11.4 8.7 68 2.9 SSE 15 20 8 11 1018.0 1018.0 0.0
27/01:30am 14.4 10.9 8.8 69 2.8 SSE 17 22 9 12 1018.2 1018.2 0.0
27/01:00am 14.4 10.8 8.4 67 3.0 SSE 17 22 9 12 1018.3 1018.3 0.0
27/12:30am 14.4 11.2 8.4 67 3.0 SSE 15 24 8 13 1018.5 1018.5 0.0
27/12:00am 14.4 11.1 8.1 66 3.1 SSE 15 19 8 10 1018.4 1018.4 0.0
 
Date/Time
EDT
Temp
°C
App
Temp
°C
Dew
Point
Rel
Hum
%
Delta-T
°C
Wind Press
QNH
hPa
Press
MSL
hPa
Rain
since 9 am
mm
Dir
 
Spd
km/h
Gust
km/h
Spd
kts
Gust
kts
26/11:30pm 14.5 11.3 8.5 67 3.0 SSE 15 19 8 10 1018.7 1018.7 0.0
26/11:00pm 14.4 11.2 8.6 68 2.9 SSE 15 19 8 10 1019.1 1019.1 0.0
26/10:30pm 14.8 12.9 9.0 68 3.0 SSE 9 15 5 8 1019.2 1019.2 0.0
26/10:00pm 14.7 11.5 8.4 66 3.2 SSE 15 20 8 11 1019.1 1019.1 0.0
26/09:30pm 14.9 12.1 8.4 65 3.3 SSE 13 19 7 10 1018.9 1018.9 0.0
26/09:00pm 14.5 11.6 8.2 66 3.1 SSE 13 17 7 9 1018.7 1018.7 0.0
26/08:30pm 15.0 11.7 8.0 63 3.5 SSE 15 20 8 11 1018.5 1018.5 0.0
26/08:00pm 15.4 12.2 8.6 64 3.4 S 15 22 8 12 1018.2 1018.2 0.0
26/07:30pm 15.6 12.5 8.8 64 3.5 SSE 15 19 8 10 1018.0 1018.0 0.0
26/07:00pm 15.7 12.7 7.7 59 4.0 S 13 22 7 12 1017.9 1017.9 0.0
26/06:30pm 17.1 13.6 8.8 58 4.3 SSE 17 22 9 12 1017.6 1017.6 0.0
26/06:00pm 17.4 14.4 9.1 58 4.3 S 15 20 8 11 1017.6 1017.6 0.0
26/05:30pm 17.7 14.2 8.8 56 4.6 S 17 26 9 14 1017.8 1017.8 0.0
26/05:00pm 17.7 14.1 8.3 54 4.8 S 17 24 9 13 1017.9 1017.9 0.0
26/04:30pm 17.9 14.3 8.2 53 5.0 S 17 24 9 13 1018.0 1018.0 0.0
26/04:00pm 17.9 14.3 8.5 54 4.8 S 17 24 9 13 1017.9 1017.9 0.0
26/03:30pm 18.1 14.5 9.7 58 4.4 S 19 28 10 15 1017.9 1017.9 0.0
26/03:00pm 17.8 13.9 8.6 55 4.7 S 19 28 10 15 1017.8 1017.8 0.0
26/02:30pm 18.2 14.6 8.5 53 5.0 S 17 24 9 13 1017.8 1017.8 0.0
26/02:00pm 18.1 14.9 8.4 53 5.0 S 15 20 8 11 1018.0 1018.0 0.0
26/01:30pm 17.9 14.7 8.5 54 4.8 SSW 15 22 8 12 1018.2 1018.2 0.0
26/01:00pm 17.7 14.4 8.0 53 4.9 S 15 22 8 12 1018.3 1018.3 0.0
26/12:30pm 17.9 15.1 10.0 60 4.2 SSW 15 22 8 12 1018.2 1018.2 0.0
26/12:00pm 16.4 13.6 8.4 59 4.1 S 13 19 7 10 1018.3 1018.3 0.0
26/11:30am 17.6 15.2 8.5 55 4.7 SSW 11 15 6 8 1018.6 1018.6 0.0
26/11:00am 17.4 15.4 8.5 56 4.6 SSW 9 15 5 8 1018.5 1018.5 0.0
26/10:30am 15.6 13.2 6.9 56 4.3 S 9 15 5 8 1018.3 1018.3 0.0
26/10:00am 15.3 12.2 7.1 58 4.0 S 13 17 7 9 1018.2 1018.2 0.0
26/09:30am 14.9 10.9 8.4 65 3.3 SSW 19 28 10 15 1017.9 1017.9 0.0
26/09:00am 14.8 10.7 8.7 67 3.1 SSW 20 30 11 16 1017.6 1017.6 0.4
26/08:30am 16.2 14.3 7.7 57 4.3 SSE 7 11 4 6 1017.3 1017.3 0.4
26/08:00am 14.6 12.3 7.6 63 3.5 SSW 9 15 5 8 1016.9 1016.9 0.4
26/07:30am 13.5 11.5 8.6 72 2.5 S 9 17 5 9 1016.6 1016.6 0.4
26/07:00am 10.6 9.3 6.2 74 2.0 N 2 6 1 3 1016.2 1016.2 0.4
26/06:30am 10.1 8.1 4.5 68 2.5 N 4 7 2 4 1015.9 1015.9 0.4
26/06:00am 13.9 10.6 6.5 61 3.6 SSW 13 19 7 10 1015.5 1015.5 0.4
26/05:30am 13.9 10.2 6.3 60 3.6 SSW 15 20 8 11 1015.1 1015.1 0.4
26/05:00am 13.8 10.6 6.7 62 3.4 SSW 13 19 7 10 1014.8 1014.8 0.4
26/04:30am 13.9 10.2 6.5 61 3.6 SSW 15 22 8 12 1014.6 1014.6 0.4
26/04:00am 14.1 9.7 6.5 60 3.7 SSW 19 26 10 14 1014.6 1014.6 0.4
26/03:30am 14.1 10.2 7.2 63 3.4 SSW 17 24 9 13 1014.4 1014.4 0.4
26/03:00am 14.0 9.7 7.1 63 3.4 SSW 19 26 10 14 1014.4 1014.4 0.4
26/02:30am 12.7 9.7 7.8 72 2.4 WSW 13 24 7 13 1014.4 1014.4 0.4
26/02:00am 11.6 8.3 6.5 71 2.4 W 13 26 7 14 1014.3 1014.3 0.4
26/01:30am 13.9 9.6 7.9 67 3.0 SW 20 32 11 17 1014.4 1014.4 0.4
26/01:00am 14.3 9.4 8.3 67 3.0 SW 24 33 13 18 1014.3 1014.3 0.4
26/12:30am 14.4 10.0 7.2 62 3.5 SW 20 28 11 15 1014.1 1014.1 0.4
26/12:00am 14.2 10.5 7.9 66 3.1 SW 17 24 9 13 1014.1 1014.1 0.4
 
Date/Time
EDT
Temp
°C
App
Temp
°C
Dew
Point
Rel
Hum
%
Delta-T
°C
Wind Press
QNH
hPa
Press
MSL
hPa
Rain
since 9 am
mm
Dir
 
Spd
km/h
Gust
km/h
Spd
kts
Gust
kts
25/11:30pm 14.2 8.5 8.2 67 3.0 SW 28 33 15 18 1014.1 1014.1 0.4
25/11:00pm 14.2 10.1 7.9 66 3.1 WSW 19 28 10 15 1014.0 1014.0 0.4
25/10:30pm 14.2 9.5 7.7 65 3.2 SW 22 28 12 15 1013.9 1013.9 0.4
25/10:00pm 14.3 9.4 8.3 67 3.0 WSW 24 32 13 17 1013.6 1013.6 0.4
25/09:30pm 14.1 9.2 8.3 68 2.9 WSW 24 37 13 20 1013.3 1013.3 0.4
25/09:00pm 13.2 10.1 8.7 74 2.3 W 15 30 8 16 1013.1 1013.1 0.4
25/08:30pm 13.5 9.4 8.6 72 2.5 W 20 32 11 17 1012.9 1012.9 0.4
25/08:00pm 14.5 9.4 7.5 63 3.5 WSW 24 32 13 17 1012.8 1012.8 0.4
25/07:30pm 15.3 9.6 8.3 63 3.5 WSW 28 37 15 20 1012.5 1012.5 0.4
25/07:00pm 16.1 10.7 9.5 65 3.4 SW 28 37 15 20 1012.3 1012.3 0.4
25/06:30pm 16.6 10.8 8.1 57 4.3 WSW 28 37 15 20 1012.0 1012.0 0.4
25/06:00pm 16.6 11.1 9.3 62 3.8 WSW 28 37 15 20 1011.9 1011.9 0.4
25/05:30pm 15.4 9.0 9.5 68 3.0 WSW 33 44 18 24 1011.8 1011.8 0.4
25/05:00pm 16.1 9.7 9.3 64 3.5 WSW 33 44 18 24 1011.7 1011.7 0.4
25/04:30pm 17.7 10.9 7.7 52 5.1 WSW 33 46 18 25 1011.3 1011.3 0.4
25/04:00pm 17.7 11.6 10.3 62 3.9 WSW 33 52 18 28 1011.2 1011.2 0.4
25/03:43pm 15.9 8.8 9.6 66 3.3 WSW 37 57 20 31 1011.3 1011.3 0.4
25/03:30pm 17.1 9.4 8.8 58 4.3 WSW 39 48 21 26 1011.1 1011.1 0.4
25/03:00pm 17.9 9.2 7.9 52 5.1 WSW 43 54 23 29 1010.9 1010.9 0.4
25/02:30pm 17.8 11.3 10.2 61 4.0 W 35 46 19 25 1010.8 1010.8 0.4
25/02:00pm 16.2 10.3 10.3 68 3.1 WSW 32 46 17 25 1010.7 1010.7 0.4
25/01:30pm 13.8 8.2 10.2 79 1.9 W 30 43 16 23 1010.7 1010.7 0.4
25/01:00pm 16.7 9.5 9.1 61 3.9 WSW 37 48 20 26 1010.3 1010.3 0.0
25/12:30pm 16.2 8.7 7.9 58 4.2 WSW 37 50 20 27 1010.2 1010.2 0.0
25/12:15pm 17.3 10.5 7.9 54 4.8 W 33 52 18 28 1010.0 1010.0 0.0
25/12:00pm 16.0 9.2 7.5 57 4.2 W 33 46 18 25 1009.8 1009.8 0.0
25/11:30am 16.3 9.2 6.4 52 4.8 W 33 52 18 28 1009.5 1009.5 0.0
25/11:27am 16.8 10.0 6.9 52 4.9 W 32 52 17 28 1009.5 1009.5 0.0
25/11:00am 17.3 10.8 8.2 55 4.6 WSW 32 44 17 24 1009.3 1009.3 0.0
25/10:30am 16.2 8.8 8.2 59 4.0 WSW 37 48 20 26 1009.0 1009.0 0.0
25/10:03am 15.9 9.3 7.9 59 4.0 W 32 52 17 28 1008.7 1008.7 0.0
25/10:00am 15.7 9.1 7.7 59 4.0 W 32 41 17 22 1008.7 1008.7 0.0
25/09:30am 15.6 8.3 7.1 57 4.2 WSW 35 44 19 24 1008.3 1008.3 0.0
25/09:00am 15.3 8.5 7.6 60 3.8 WSW 33 48 18 26 1007.9 1007.9 6.2
25/08:30am 15.3 8.3 8.3 63 3.5 WSW 35 46 19 25 1007.4 1007.4 6.2
25/08:00am 14.7 8.3 8.4 66 3.2 WSW 32 43 17 23 1007.0 1007.0 6.2

Other Formats:

Comma delimited format used in spreadsheet applications
http://www.bom.gov.au/fwo/IDV60801/IDV60801.94830.axf

JavaScript Object Notation format (JSON) in row-major order
http://www.bom.gov.au/fwo/IDV60801/IDV60801.94830.json